Terminal Aerodrome Forecast
Issued by NWS

Home | Current Version | Previous Version | Text Only | Print | Product List | Glossary On
Versions: 1 2 3 4 5 6 7 8 9 10 11 12 13
209
FTUS45 KPSR 182323
TAFBLH
TAF
KBLH 182323Z 1900/1924 16005KT P6SM SCT150 BKN200
     FM190400 29006KT P6SM SCT120 BKN200
     FM191800 20007KT P6SM FEW250=

USA.gov is the U.S. government's official web portal to all federal, state and local government web resources and services.